Friday, July 20, 2018, 4:53 AM EDT
Back to Local

KESN, Easton / Newman Field

Location: Easton, MD, United States Lat: 38.8
Local Time: 4:53 AM EDT ( 8:53 GMT) Lon: -76.067
Time Zone: US/Eastern Elev: 72 ft

Show me the last for .
Show Decoded

2018-07-20 04:26 METAR KESN 200829Z AUTO 00000KT 10SM CLR 19/17 A3015 RMK AO2 T01920165 =
2018-07-20 04:06 METAR KESN 200809Z AUTO 00000KT 10SM CLR 19/16 A3014 RMK AO2 T01920163 =
2018-07-20 03:49 METAR KESN 200749Z AUTO 00000KT 10SM CLR 20/16 A3014 RMK AO2 T01950164 =
2018-07-20 03:27 METAR KESN 200729Z AUTO 00000KT 10SM CLR 20/16 A3014 RMK AO2 T01970163 =
2018-07-20 03:06 METAR KESN 200709Z AUTO 00000KT 10SM CLR 20/16 A3015 RMK AO2 T02010163 =
2018-07-20 02:49 METAR KESN 200649Z AUTO 14003KT 10SM CLR 20/16 A3015 RMK AO2 T02030162 =
2018-07-20 02:27 METAR KESN 200629Z AUTO 00000KT 10SM CLR 20/16 A3015 RMK AO2 T02030162 =
2018-07-20 02:06 METAR KESN 200609Z AUTO 00000KT 10SM CLR 21/16 A3015 RMK AO2 T02050161 =
2018-07-20 01:49 METAR KESN 200549Z AUTO 14003KT 10SM CLR 21/16 A3015 RMK AO2 T02050163 =
2018-07-20 01:27 METAR KESN 200529Z AUTO 00000KT 10SM CLR 21/16 A3015 RMK AO2 T02080162 =
2018-07-20 01:06 METAR KESN 200509Z AUTO 00000KT 10SM CLR 21/16 A3015 RMK AO2 T02110162 =
2018-07-20 00:49 METAR KESN 200449Z AUTO 14004KT 10SM CLR 21/16 A3016 RMK AO2 T02100164 =
2018-07-20 00:26 METAR KESN 200429Z AUTO 15003KT 10SM CLR 22/16 A3016 RMK AO2 T02160160 =
2018-07-20 00:06 METAR KESN 200409Z AUTO 15003KT 10SM CLR 22/16 A3015 RMK AO2 T02200159 =
2018-07-19 23:49 METAR KESN 200349Z AUTO 15003KT 10SM CLR 22/16 A3014 RMK AO2 T02230160 =
2018-07-19 23:26 METAR KESN 200329Z AUTO 16004KT 10SM CLR 22/16 A3014 RMK AO2 T02240162 =
2018-07-19 23:07 METAR KESN 200309Z AUTO 18003KT 10SM CLR 23/16 A3014 RMK AO2 T02250162 =
2018-07-19 22:49 METAR KESN 200249Z AUTO 15005KT 10SM CLR 23/16 A3013 RMK AO2 T02280162 =
2018-07-19 22:26 METAR KESN 200229Z AUTO 15004KT 10SM CLR 23/16 A3013 RMK AO2 T02310161 =
2018-07-19 21:50 METAR KESN 200150Z 00000KT 10SM SKC 23/16 A3012 =
2018-07-19 20:50 METAR KESN 200050Z 00000KT 10SM SKC 25/15 A3010 =
2018-07-19 19:50 METAR KESN 192350Z 00000KT 10SM FEW120 27/16 A3010 =
2018-07-19 18:50 METAR KESN 192250Z 00000KT 10SM FEW120 29/12 A3009 =
2018-07-19 17:50 METAR KESN 192150Z 30004KT 10SM FEW120 30/13 A3010 =
2018-07-19 16:50 METAR KESN 192050Z 32005KT 10SM FEW120 30/12 A3011 =
2018-07-19 15:50 METAR KESN 191950Z 33005KT 10SM FEW120 30/12 A3011 =
2018-07-19 14:50 METAR KESN 191850Z 00000KT 10SM FEW120 30/12 A3012 =
2018-07-19 13:50 METAR KESN 191750Z 00000KT 10SM FEW120 29/12 A3013 =
2018-07-19 12:54 METAR KESN 191654Z 00000KT 10SM SKC 29/12 A3013 =
2018-07-19 11:52 METAR KESN 191552Z 02004KT 10SM SKC 28/12 A3013 =
2018-07-19 10:55 METAR KESN 191455Z 08006KT 10SM SKC 28/12 A3014 =
2018-07-19 09:50 METAR KESN 191350Z 06006KT 10SM SKC 26/13 A3013 =
2018-07-19 08:52 METAR KESN 191252Z 06006KT 10SM SKC 24/14 A3013 =
2018-07-19 07:50 METAR KESN 191150Z 06007KT 10SM SKC 22/15 A3011 =
2018-07-19 06:50 METAR KESN 191050Z 06005KT 10SM FEW100 19/15 A3009 =
2018-07-19 05:55 METAR KESN 190955Z 06005KT 10SM SCT120 19/14 A3008 =
2018-07-19 05:36 METAR KESN 190936Z AUTO 09004KT 10SM CLR 19/15 A3007 RMK AO2 T01930146 =
2018-07-19 05:27 METAR KESN 190929Z AUTO 08004KT 10SM CLR 19/15 A3007 RMK AO2 T01930147 =
2018-07-19 05:07 METAR KESN 190909Z AUTO 07005KT 10SM CLR 20/15 A3007 RMK AO2 T01960151 =

Support USWX by starting your Amazon purchase here.